Time;durP1;ratioP1;P1;durP2;ratioP2;P2;SDS_P1;SDS_P2;PMS_P1;PMS_P2;Temp;Humidity;BMP_temperature;BMP_pressure;BME280_temperature;BME280_humidity;BME280_pressure;Samples;Min_cycle;Max_cycle;Signal;HPM_P1;HPM_P2
2021/07/28 00:02:45;;;;;;;7.35;3.75;;;17.30;99.90;;;;;;10312903;28;20058;-68
2021/07/28 00:08:11;;;;;;;7.90;3.80;;;17.20;99.90;;;;;;10329706;28;20133;-68
2021/07/28 00:13:50;;;;;;;8.63;3.85;;;17.10;99.90;;;;;;10333038;28;20061;-68
2021/07/28 00:19:48;;;;;;;9.20;4.53;;;17.20;99.90;;;;;;10323859;28;20057;-68
2021/07/28 00:24:31;;;;;;;9.45;4.80;;;17.20;99.90;;;;;;10321056;28;20157;-68
2021/07/28 00:29:48;;;;;;;13.63;5.18;;;17.00;99.90;;;;;;10375348;28;20471;-67
2021/07/28 00:35:11;;;;;;;11.25;5.70;;;17.00;99.90;;;;;;10379571;28;20045;-67
2021/07/28 00:40:32;;;;;;;13.13;5.07;;;17.00;99.90;;;;;;10326375;28;20512;-67
2021/07/28 00:45:58;;;;;;;20.52;6.93;;;16.90;99.90;;;;;;10380185;28;20545;-66
2021/07/28 00:51:22;;;;;;;13.37;6.20;;;16.80;99.90;;;;;;10373189;28;20054;-66
2021/07/28 00:57:01;;;;;;;17.27;7.32;;;16.80;99.90;;;;;;7581197;28;21923;-67
2021/07/28 01:02:21;;;;;;;23.73;7.38;;;16.70;99.90;;;;;;10273305;28;20520;-66
2021/07/28 01:07:32;;;;;;;18.60;7.38;;;16.70;99.90;;;;;;10336279;28;20057;-67
2021/07/28 01:18:51;;;;;;;19.52;7.30;;;16.60;99.90;;;;;;10272596;28;20054;-66
2021/07/28 02:01:34;;;;;;;17.75;5.78;;;16.60;99.90;;;;;;10264942;28;20058;-65
2021/07/28 02:12:52;;;;;;;18.35;6.70;;;16.70;99.90;;;;;;10314563;28;20132;-65
2021/07/28 02:24:10;;;;;;;13.73;6.68;;;16.70;99.90;;;;;;10312442;28;20045;-64
2021/07/28 02:29:11;;;;;;;14.15;7.05;;;16.70;99.90;;;;;;10356588;28;20074;-64
2021/07/28 03:11:49;;;;;;;21.20;10.00;;;16.90;99.90;;;;;;10318236;28;20069;-65
2021/07/28 03:17:14;;;;;;;17.73;10.52;;;16.80;99.90;;;;;;10379689;28;20543;-65
2021/07/28 03:22:34;;;;;;;21.00;11.05;;;16.80;99.90;;;;;;10332484;28;20156;-65
2021/07/28 03:27:55;;;;;;;18.95;9.93;;;16.80;99.90;;;;;;10374023;28;20441;-65
2021/07/28 03:33:21;;;;;;;21.67;9.45;;;16.90;99.90;;;;;;10384226;28;20080;-65
2021/07/28 03:38:44;;;;;;;19.63;8.90;;;17.00;99.90;;;;;;10329438;28;20057;-65
2021/07/28 03:44:10;;;;;;;20.38;10.05;;;16.90;99.90;;;;;;10330246;28;20189;-64
2021/07/28 03:49:33;;;;;;;16.95;9.70;;;16.90;99.90;;;;;;10332696;28;20112;-63
2021/07/28 03:55:00;;;;;;;20.45;10.15;;;16.80;99.90;;;;;;10381835;28;20480;-63
2021/07/28 04:00:20;;;;;;;14.05;8.65;;;16.90;99.90;;;;;;10381885;28;20677;-63
2021/07/28 04:05:46;;;;;;;17.90;9.68;;;16.90;99.90;;;;;;10381358;28;20658;-63
2021/07/28 04:11:07;;;;;;;17.17;8.68;;;17.10;99.90;;;;;;10327122;28;20080;-63
2021/07/28 04:22:25;;;;;;;16.15;8.43;;;16.90;99.90;;;;;;10315679;28;20046;-63
2021/07/28 04:27:29;;;;;;;16.75;8.88;;;16.90;99.90;;;;;;10374580;28;20085;-63
2021/07/28 04:32:33;;;;;;;14.88;7.10;;;16.80;99.90;;;;;;10373420;28;20088;-60
2021/07/28 04:37:35;;;;;;;15.35;8.82;;;16.80;99.90;;;;;;10379963;28;20064;-60
2021/07/28 04:42:37;;;;;;;17.38;8.18;;;17.00;99.90;;;;;;10375494;28;20084;-60
2021/07/28 04:47:38;;;;;;;15.35;9.10;;;16.90;99.90;;;;;;10375622;28;20502;-60
2021/07/28 04:52:40;;;;;;;16.52;9.05;;;17.10;99.90;;;;;;10377636;28;20073;-60
2021/07/28 04:57:42;;;;;;;15.30;9.05;;;17.10;99.90;;;;;;10376860;28;20479;-61
2021/07/28 05:02:43;;;;;;;15.98;8.25;;;17.20;99.90;;;;;;10379308;28;20476;-60
2021/07/28 05:07:45;;;;;;;15.52;9.88;;;17.20;99.90;;;;;;10376354;28;20051;-60
2021/07/28 05:12:47;;;;;;;17.50;9.23;;;17.20;99.90;;;;;;10376616;28;20115;-60
2021/07/28 05:17:48;;;;;;;15.60;9.55;;;17.20;99.90;;;;;;10378303;28;20450;-60
2021/07/28 05:22:51;;;;;;;16.60;9.10;;;17.20;99.90;;;;;;10373296;28;20053;-60
2021/07/28 05:27:53;;;;;;;18.25;9.57;;;17.00;99.90;;;;;;10376495;28;20138;-61
2021/07/28 05:32:55;;;;;;;19.15;9.30;;;17.10;99.90;;;;;;10379349;28;20069;-60
2021/07/28 05:37:58;;;;;;;14.90;8.75;;;17.10;99.90;;;;;;10377369;28;20573;-60
2021/07/28 05:42:59;;;;;;;17.95;8.98;;;17.10;99.90;;;;;;10374633;28;20073;-60
2021/07/28 05:48:01;;;;;;;18.08;7.03;;;17.10;99.90;;;;;;10374378;28;20434;-60
2021/07/28 05:53:03;;;;;;;12.27;7.45;;;17.30;99.90;;;;;;10375924;28;20120;-60
2021/07/28 05:58:04;;;;;;;13.50;6.55;;;17.00;99.90;;;;;;10375863;28;20120;-60
2021/07/28 06:03:06;;;;;;;10.95;7.05;;;17.00;99.90;;;;;;10372926;28;20101;-60
2021/07/28 06:08:08;;;;;;;9.55;5.65;;;17.00;99.90;;;;;;10376235;28;20050;-62
2021/07/28 06:13:09;;;;;;;14.48;6.28;;;17.10;99.90;;;;;;10374272;28;20135;-60
2021/07/28 06:18:11;;;;;;;10.52;5.85;;;17.10;99.90;;;;;;10381112;28;20103;-64
2021/07/28 06:23:13;;;;;;;10.40;5.93;;;17.10;99.90;;;;;;10386884;28;20113;-64
2021/07/28 06:28:14;;;;;;;12.48;6.28;;;17.20;99.90;;;;;;10366599;28;20057;-64
2021/07/28 06:33:16;;;;;;;12.55;6.20;;;17.10;99.90;;;;;;10379839;28;20081;-64
2021/07/28 06:38:19;;;;;;;14.23;5.90;;;17.10;99.90;;;;;;10384933;28;20137;-64
2021/07/28 06:43:21;;;;;;;11.23;6.20;;;17.20;99.90;;;;;;10380676;28;20058;-64
2021/07/28 06:48:23;;;;;;;11.63;6.55;;;17.30;99.90;;;;;;10380213;28;20049;-64
2021/07/28 06:53:24;;;;;;;16.48;7.82;;;17.30;99.90;;;;;;10384799;28;20061;-64
2021/07/28 06:58:26;;;;;;;9.52;6.97;;;17.30;99.90;;;;;;10382275;28;20049;-64
2021/07/28 07:03:28;;;;;;;12.05;6.50;;;17.40;99.90;;;;;;10380829;28;20492;-64
2021/07/28 07:08:49;;;;;;;10.98;6.40;;;17.30;99.90;;;;;;10332824;28;20076;-64
2021/07/28 07:13:51;;;;;;;11.93;7.00;;;17.30;99.90;;;;;;10379109;28;20492;-64
2021/07/28 07:18:53;;;;;;;11.35;6.57;;;17.50;99.90;;;;;;10370120;28;20057;-64
2021/07/28 07:23:55;;;;;;;11.77;6.30;;;17.70;99.90;;;;;;10377757;28;20069;-64
2021/07/28 07:28:56;;;;;;;12.93;6.18;;;18.00;99.90;;;;;;10385270;28;20664;-64
2021/07/28 07:33:58;;;;;;;11.70;6.00;;;18.30;99.90;;;;;;10378180;28;20084;-64
2021/07/28 07:39:02;;;;;;;11.32;5.30;;;18.20;99.90;;;;;;10376296;28;20084;-64
2021/07/28 07:44:04;;;;;;;13.75;6.10;;;18.20;99.90;;;;;;10383762;28;20049;-64
2021/07/28 07:49:06;;;;;;;11.75;7.03;;;18.20;99.90;;;;;;10375959;28;20045;-64
2021/07/28 07:54:07;;;;;;;14.60;5.90;;;18.20;99.90;;;;;;10362014;28;20480;-64
2021/07/28 07:59:09;;;;;;;8.70;5.80;;;18.30;99.90;;;;;;10378703;28;20053;-64
2021/07/28 08:04:11;;;;;;;9.18;5.93;;;18.60;99.90;;;;;;10373693;28;20053;-64
2021/07/28 08:09:13;;;;;;;9.45;5.60;;;18.80;99.90;;;;;;10384046;28;20045;-64
2021/07/28 08:14:14;;;;;;;8.38;4.78;;;18.70;99.90;;;;;;10376177;28;20154;-64
2021/07/28 08:19:16;;;;;;;9.00;5.07;;;18.80;99.90;;;;;;10380530;28;20048;-64
2021/07/28 08:24:18;;;;;;;12.05;5.40;;;19.00;99.90;;;;;;10359348;28;20054;-64
2021/07/28 08:29:19;;;;;;;9.43;5.75;;;19.30;99.90;;;;;;10378180;28;20147;-64
2021/07/28 08:34:21;;;;;;;11.95;5.32;;;19.50;99.90;;;;;;10378120;28;20143;-64
2021/07/28 08:39:23;;;;;;;9.85;5.47;;;19.40;99.90;;;;;;10375469;28;20064;-64
2021/07/28 08:44:25;;;;;;;12.93;6.55;;;19.40;99.90;;;;;;10376314;28;20099;-64
2021/07/28 08:49:28;;;;;;;9.23;5.00;;;19.30;99.90;;;;;;10381570;28;20050;-64
2021/07/28 08:54:30;;;;;;;12.70;4.85;;;19.10;99.90;;;;;;10375567;28;20542;-64
2021/07/28 08:59:33;;;;;;;12.15;5.20;;;19.40;99.90;;;;;;10379505;28;20106;-64
2021/07/28 09:04:35;;;;;;;9.95;5.25;;;19.40;99.90;;;;;;10371152;28;20046;-64
2021/07/28 09:09:50;;;;;;;9.23;4.25;;;19.50;99.90;;;;;;10376483;28;20107;-64
2021/07/28 09:14:55;;;;;;;15.48;5.03;;;19.40;99.90;;;;;;10376696;28;20119;-65
2021/07/28 09:19:58;;;;;;;10.40;4.70;;;19.40;99.90;;;;;;10364749;28;20046;-65
2021/07/28 09:25:19;;;;;;;8.27;5.50;;;19.40;99.90;;;;;;10376762;28;20472;-65
2021/07/28 09:30:23;;;;;;;11.20;5.60;;;19.50;99.90;;;;;;10377871;28;20049;-65
2021/07/28 09:35:47;;;;;;;8.18;4.20;;;19.70;99.90;;;;;;10375341;28;20069;-65
2021/07/28 09:40:48;;;;;;;5.90;4.28;;;20.00;99.90;;;;;;10329866;28;20084;-65
2021/07/28 09:45:50;;;;;;;8.35;4.68;;;20.60;99.90;;;;;;10374373;28;20131;-65
2021/07/28 09:50:56;;;;;;;8.57;4.43;;;20.90;99.90;;;;;;10377848;28;20077;-65
2021/07/28 09:55:58;;;;;;;7.75;4.93;;;20.30;99.90;;;;;;10373266;28;20065;-65
2021/07/28 10:01:00;;;;;;;10.82;4.78;;;20.00;99.90;;;;;;10370510;28;20583;-65
2021/07/28 10:06:02;;;;;;;12.25;5.95;;;19.70;99.90;;;;;;10371395;28;20056;-65
2021/07/28 10:11:04;;;;;;;7.95;6.25;;;19.70;99.90;;;;;;10374245;28;20637;-65
2021/07/28 10:16:05;;;;;;;11.13;6.13;;;19.60;99.90;;;;;;10373796;28;20069;-65
2021/07/28 10:21:08;;;;;;;12.63;6.95;;;19.50;99.90;;;;;;10372672;28;20127;-64
2021/07/28 10:26:13;;;;;;;10.43;6.80;;;19.30;99.90;;;;;;10375330;28;21779;-63
2021/07/28 10:31:20;;;;;;;9.57;6.15;;;19.30;99.90;;;;;;10379723;28;20065;-64
2021/07/28 10:36:42;;;;;;;11.63;6.25;;;19.80;99.90;;;;;;10375230;28;20054;-64
2021/07/28 10:41:44;;;;;;;9.85;6.00;;;19.90;99.90;;;;;;10331847;28;20115;-64
2021/07/28 10:46:52;;;;;;;10.27;5.50;;;19.90;99.90;;;;;;10373113;28;20104;-64
2021/07/28 10:51:55;;;;;;;14.77;5.40;;;19.80;99.90;;;;;;10375163;28;20053;-64
2021/07/28 10:57:29;;;;;;;9.73;5.07;;;19.60;99.90;;;;;;10376319;28;20073;-64
2021/07/28 11:02:55;;;;;;;12.57;5.88;;;19.70;99.90;;;;;;10320401;28;20061;-64
2021/07/28 11:08:05;;;;;;;12.17;6.70;;;19.60;99.90;;;;;;10325154;28;20056;-63
2021/07/28 11:13:14;;;;;;;8.25;5.45;;;19.40;99.90;;;;;;10378609;28;20181;-63
2021/07/28 11:18:16;;;;;;;12.30;6.40;;;19.40;99.90;;;;;;10384175;28;20049;-64
2021/07/28 11:23:29;;;;;;;9.20;6.22;;;20.10;99.90;;;;;;10375427;28;20050;-64
2021/07/28 11:28:30;;;;;;;6.53;5.07;;;20.30;99.90;;;;;;10383501;28;20072;-65
2021/07/28 11:33:32;;;;;;;7.72;4.95;;;20.40;99.90;;;;;;10379388;28;20085;-64
2021/07/28 11:38:39;;;;;;;12.77;4.72;;;20.40;99.90;;;;;;10373106;28;20057;-64
2021/07/28 11:43:41;;;;;;;7.90;4.37;;;20.70;99.90;;;;;;10381542;28;20566;-65
2021/07/28 11:48:44;;;;;;;11.57;5.07;;;21.20;99.90;;;;;;10357979;28;20089;-65
2021/07/28 11:53:46;;;;;;;5.18;3.42;;;21.30;99.90;;;;;;10378121;28;20053;-65
2021/07/28 11:58:51;;;;;;;6.40;4.30;;;21.00;99.90;;;;;;10383026;28;20077;-65
2021/07/28 12:04:08;;;;;;;7.15;4.93;;;20.80;99.90;;;;;;10379810;28;20100;-65
2021/07/28 12:09:23;;;;;;;7.78;4.38;;;21.20;99.90;;;;;;10375246;28;20133;-65
2021/07/28 12:14:26;;;;;;;8.60;4.63;;;21.80;99.90;;;;;;10374756;28;20057;-65
2021/07/28 12:19:34;;;;;;;5.47;4.00;;;21.90;99.90;;;;;;10359610;28;20064;-65
2021/07/28 12:24:47;;;;;;;9.65;4.55;;;21.30;99.90;;;;;;10376921;28;20124;-65
2021/07/28 12:30:08;;;;;;;8.25;5.47;;;20.90;99.90;;;;;;10376499;28;20053;-65
2021/07/28 12:35:22;;;;;;;8.60;4.32;;;20.30;99.90;;;;;;10373485;28;20077;-65
2021/07/28 12:40:23;;;;;;;9.55;3.47;;;20.10;99.90;;;;;;10372135;28;20058;-65
2021/07/28 12:45:25;;;;;;;7.22;3.72;;;20.80;99.90;;;;;;10382245;28;20381;-66
2021/07/28 12:50:27;;;;;;;7.43;3.75;;;21.40;99.90;;;;;;10377773;28;20085;-66
2021/07/28 12:55:29;;;;;;;4.43;2.78;;;21.80;99.90;;;;;;10376046;28;20052;-67
2021/07/28 13:00:33;;;;;;;5.22;2.28;;;22.10;99.90;;;;;;10374851;28;20061;-67
2021/07/28 13:05:40;;;;;;;4.32;2.47;;;22.30;99.90;;;;;;10357978;28;20061;-67
2021/07/28 13:10:45;;;;;;;2.85;2.10;;;22.70;99.90;;;;;;10379317;28;20522;-67
2021/07/28 13:15:47;;;;;;;1.70;1.42;;;23.40;99.90;;;;;;10373461;28;20115;-66
2021/07/28 13:20:49;;;;;;;2.00;1.45;;;23.50;99.90;;;;;;10372074;28;20068;-66
2021/07/28 13:25:51;;;;;;;2.00;1.63;;;23.70;99.90;;;;;;10377589;28;20053;-66
2021/07/28 13:30:52;;;;;;;2.33;1.45;;;24.80;99.90;;;;;;10375770;28;20147;-67
2021/07/28 13:35:54;;;;;;;1.90;1.35;;;24.30;99.90;;;;;;10377859;28;20077;-67
2021/07/28 13:40:56;;;;;;;2.30;1.50;;;24.90;99.90;;;;;;10380474;28;20053;-67
2021/07/28 13:45:57;;;;;;;1.55;1.10;;;24.70;99.90;;;;;;10376537;28;20845;-68
2021/07/28 13:51:04;;;;;;;1.70;1.00;;;24.50;99.90;;;;;;10375256;28;20224;-67
2021/07/28 13:56:06;;;;;;;1.23;0.90;;;24.60;99.90;;;;;;10366181;28;20108;-67
2021/07/28 14:01:07;;;;;;;3.00;0.60;;;25.50;99.90;;;;;;10379752;28;20103;-67
2021/07/28 14:06:09;;;;;;;0.85;0.55;;;25.30;94.30;;;;;;10376201;28;20060;-68
2021/07/28 14:11:11;;;;;;;2.55;0.70;;;25.10;94.00;;;;;;10373520;28;20049;-68
2021/07/28 14:16:13;;;;;;;0.60;0.45;;;24.50;94.50;;;;;;10376091;28;20069;-68
2021/07/28 14:21:15;;;;;;;1.23;0.65;;;24.30;94.90;;;;;;10376951;28;20041;-67
2021/07/28 14:26:17;;;;;;;1.20;0.80;;;24.10;95.80;;;;;;10375645;28;20117;-67
2021/07/28 14:31:18;;;;;;;1.65;0.60;;;24.00;95.80;;;;;;10377194;28;20065;-68
2021/07/28 14:36:20;;;;;;;1.60;0.60;;;24.90;94.50;;;;;;10376308;28;20496;-68
2021/07/28 14:41:22;;;;;;;2.28;0.50;;;25.40;92.50;;;;;;10380709;28;20539;-68
2021/07/28 14:46:24;;;;;;;1.13;0.50;;;25.60;91.00;;;;;;10382114;28;20059;-67
2021/07/28 14:51:26;;;;;;;0.60;0.50;;;25.40;90.80;;;;;;10386765;28;20067;-67
2021/07/28 14:56:28;;;;;;;1.42;0.98;;;25.40;90.00;;;;;;10384470;28;20102;-67
2021/07/28 15:01:29;;;;;;;3.70;0.45;;;26.00;86.90;;;;;;10383601;28;20811;-68
2021/07/28 15:06:32;;;;;;;1.02;0.40;;;25.80;83.90;;;;;;10379074;28;20072;-67
2021/07/28 15:11:34;;;;;;;2.65;0.52;;;26.00;83.60;;;;;;10381125;28;20107;-67
2021/07/28 15:16:35;;;;;;;1.17;0.50;;;24.70;83.50;;;;;;10381531;28;20982;-67
2021/07/28 15:21:40;;;;;;;2.45;0.40;;;24.30;84.90;;;;;;10379575;28;20062;-68
2021/07/28 15:26:43;;;;;;;1.02;0.47;;;24.10;87.80;;;;;;10381043;28;20657;-67
2021/07/28 15:31:45;;;;;;;1.20;0.70;;;24.20;87.50;;;;;;10381346;28;20066;-68
2021/07/28 15:36:47;;;;;;;0.93;0.45;;;25.00;86.80;;;;;;10384954;28;20536;-68
2021/07/28 15:41:49;;;;;;;0.60;0.50;;;25.40;86.30;;;;;;10377488;28;20069;-67
2021/07/28 15:46:50;;;;;;;0.80;0.60;;;25.00;86.50;;;;;;10384134;28;20085;-68
2021/07/28 15:51:52;;;;;;;1.10;0.45;;;24.90;87.20;;;;;;10380186;28;20045;-68
2021/07/28 15:56:54;;;;;;;1.48;0.40;;;25.10;87.90;;;;;;10380162;28;20562;-65
2021/07/28 16:01:55;;;;;;;1.00;0.40;;;25.30;85.30;;;;;;10375535;28;20104;-65
2021/07/28 16:06:58;;;;;;;1.73;0.32;;;25.30;84.00;;;;;;10378790;28;20041;-63
2021/07/28 16:11:59;;;;;;;0.50;0.40;;;25.90;82.90;;;;;;10377745;28;20069;-64
2021/07/28 16:17:03;;;;;;;1.92;0.47;;;24.90;83.90;;;;;;10378054;28;20128;-65
2021/07/28 16:22:20;;;;;;;1.55;0.30;;;24.60;84.70;;;;;;10374204;28;20054;-64
2021/07/28 16:27:22;;;;;;;1.67;0.70;;;24.10;87.00;;;;;;10380505;28;20440;-64
2021/07/28 16:32:23;;;;;;;1.13;0.40;;;23.90;88.30;;;;;;10378755;28;20081;-64
2021/07/28 16:37:25;;;;;;;2.30;0.50;;;23.80;88.60;;;;;;10382373;28;20068;-64
2021/07/28 16:42:27;;;;;;;1.55;0.40;;;23.60;89.10;;;;;;10380483;28;20511;-65
2021/07/28 16:47:29;;;;;;;3.90;0.50;;;23.40;90.30;;;;;;10378675;28;20049;-65
2021/07/28 16:52:31;;;;;;;0.88;0.40;;;23.30;90.40;;;;;;10346945;28;20107;-65
2021/07/28 16:57:33;;;;;;;3.17;0.60;;;23.10;91.00;;;;;;10375104;28;20064;-62
2021/07/28 17:02:44;;;;;;;5.38;0.73;;;22.20;99.90;;;;;;10375780;28;20147;-59
2021/07/28 17:07:47;;;;;;;1.77;0.70;;;20.00;99.90;;;;;;10375676;28;20428;-61
2021/07/28 17:12:49;;;;;;;2.88;1.10;;;19.20;99.90;;;;;;10375862;28;20085;-61
2021/07/28 17:17:54;;;;;;;1.10;0.88;;;19.00;99.90;;;;;;10378576;28;20108;-61
2021/07/28 17:22:56;;;;;;;3.92;2.08;;;19.60;99.90;;;;;;10376866;28;20053;-62
2021/07/28 17:27:57;;;;;;;2.95;0.65;;;20.10;99.90;;;;;;10376534;28;20112;-62
2021/07/28 17:32:59;;;;;;;2.55;0.90;;;20.00;99.90;;;;;;10381347;28;20111;-62
2021/07/28 17:38:01;;;;;;;1.52;0.77;;;20.50;99.90;;;;;;10378373;28;20152;-62
2021/07/28 17:43:02;;;;;;;2.80;0.73;;;20.40;99.90;;;;;;10377782;28;20052;-62
2021/07/28 17:48:04;;;;;;;3.78;0.65;;;20.20;99.90;;;;;;10375460;28;20107;-62
2021/07/28 17:53:06;;;;;;;2.30;0.85;;;20.60;99.90;;;;;;10375138;28;20061;-62
2021/07/28 17:58:08;;;;;;;1.85;0.90;;;20.70;99.90;;;;;;10373414;28;20434;-61
2021/07/28 18:03:10;;;;;;;2.05;0.80;;;20.60;99.90;;;;;;10373881;28;20077;-61
2021/07/28 18:08:12;;;;;;;2.72;0.70;;;20.50;99.90;;;;;;10373087;28;20111;-61
2021/07/28 18:13:14;;;;;;;3.70;1.05;;;20.40;99.90;;;;;;10374637;28;20053;-61
2021/07/28 18:18:16;;;;;;;3.78;0.93;;;20.20;99.90;;;;;;10354309;28;20108;-61
2021/07/28 18:23:17;;;;;;;3.03;1.27;;;20.10;99.90;;;;;;10375583;28;20162;-62
2021/07/28 18:28:19;;;;;;;1.30;1.00;;;20.00;99.90;;;;;;10376267;28;20064;-61
2021/07/28 18:33:21;;;;;;;1.88;0.95;;;19.90;99.90;;;;;;10375463;28;20054;-61
2021/07/28 18:38:22;;;;;;;4.55;0.80;;;19.80;99.90;;;;;;10378081;28;20131;-61
2021/07/28 18:43:24;;;;;;;4.78;1.25;;;19.70;99.90;;;;;;10373788;28;20049;-62
2021/07/28 18:48:26;;;;;;;3.72;1.23;;;19.60;99.90;;;;;;10375914;28;20073;-61
2021/07/28 18:53:28;;;;;;;2.25;1.10;;;19.50;99.90;;;;;;10377056;28;20598;-62
2021/07/28 18:58:29;;;;;;;2.78;0.82;;;19.40;99.90;;;;;;10371099;28;20107;-61
2021/07/28 19:03:31;;;;;;;2.17;1.40;;;19.30;99.90;;;;;;10373804;28;20049;-61
2021/07/28 19:08:33;;;;;;;3.75;1.30;;;19.20;99.90;;;;;;10362945;28;20081;-61
2021/07/28 19:13:34;;;;;;;1.95;1.25;;;19.10;99.90;;;;;;10370399;28;20391;-62
2021/07/28 19:18:36;;;;;;;1.98;1.40;;;19.00;99.90;;;;;;10372814;28;20139;-61
2021/07/28 19:23:38;;;;;;;2.25;1.20;;;18.80;99.90;;;;;;10379639;28;20108;-62
2021/07/28 19:28:39;;;;;;;1.42;1.10;;;18.80;99.90;;;;;;10388651;28;20084;-62
2021/07/28 19:33:41;;;;;;;2.08;1.13;;;18.60;99.90;;;;;;10383906;28;20122;-62
2021/07/28 19:38:43;;;;;;;2.67;0.85;;;18.60;99.90;;;;;;10381522;28;20053;-62
2021/07/28 19:43:44;;;;;;;3.53;1.27;;;18.50;99.90;;;;;;10381074;28;20057;-62
2021/07/28 19:48:46;;;;;;;2.35;1.38;;;18.40;99.90;;;;;;10377539;28;20057;-62
2021/07/28 19:53:48;;;;;;;1.80;0.95;;;18.30;99.90;;;;;;10379837;28;20126;-62
2021/07/28 19:58:52;;;;;;;2.78;1.08;;;18.30;99.90;;;;;;10375695;28;20137;-62
2021/07/28 20:03:54;;;;;;;2.88;1.10;;;18.20;99.90;;;;;;10364382;28;20648;-62
2021/07/28 20:08:56;;;;;;;4.55;1.23;;;18.10;99.90;;;;;;10383042;28;20123;-62
2021/07/28 20:13:58;;;;;;;3.42;1.10;;;18.00;99.90;;;;;;10376940;28;20054;-62
2021/07/28 20:19:00;;;;;;;3.10;1.20;;;18.00;99.90;;;;;;10377180;28;20578;-62
2021/07/28 20:24:01;;;;;;;2.35;1.20;;;17.90;99.90;;;;;;10364079;28;20061;-62
2021/07/28 20:29:06;;;;;;;2.25;1.17;;;17.80;99.90;;;;;;10380630;28;20049;-62
2021/07/28 20:34:10;;;;;;;2.92;1.30;;;17.80;99.90;;;;;;10379523;28;20100;-62
2021/07/28 20:39:12;;;;;;;3.72;1.33;;;17.70;99.90;;;;;;10375728;28;20120;-62
2021/07/28 20:44:14;;;;;;;4.93;1.40;;;17.70;99.90;;;;;;10377015;28;20138;-62
2021/07/28 20:49:16;;;;;;;4.70;1.10;;;17.60;99.90;;;;;;10380095;28;20053;-61
2021/07/28 20:54:18;;;;;;;3.58;1.40;;;17.60;99.90;;;;;;10373767;28;20523;-61
2021/07/28 20:59:19;;;;;;;3.25;1.27;;;17.60;99.90;;;;;;10378223;28;20144;-62
2021/07/28 21:04:21;;;;;;;2.33;1.52;;;17.60;99.90;;;;;;10374135;28;20061;-62
2021/07/28 21:09:22;;;;;;;4.13;1.10;;;17.60;99.90;;;;;;10377786;28;20073;-62
2021/07/28 21:14:24;;;;;;;4.72;1.55;;;17.60;99.90;;;;;;10378332;28;20061;-62
2021/07/28 21:19:26;;;;;;;2.00;1.05;;;17.60;99.90;;;;;;10379103;28;20097;-62
2021/07/28 21:24:27;;;;;;;2.33;1.08;;;17.50;99.90;;;;;;10372998;28;20473;-62
2021/07/28 21:29:29;;;;;;;5.20;1.88;;;17.50;99.90;;;;;;10377862;28;20088;-62
2021/07/28 21:34:33;;;;;;;3.15;1.35;;;17.40;99.90;;;;;;10359974;28;20053;-62
2021/07/28 21:39:37;;;;;;;2.15;1.33;;;17.30;99.90;;;;;;10376767;28;20050;-62
2021/07/28 21:44:42;;;;;;;1.90;1.38;;;17.30;99.90;;;;;;10376659;28;20135;-62
2021/07/28 21:50:04;;;;;;;3.10;1.40;;;17.30;99.90;;;;;;10372137;28;20054;-62
2021/07/28 21:55:06;;;;;;;6.65;1.45;;;17.20;99.90;;;;;;10363192;28;20104;-62
2021/07/28 22:00:09;;;;;;;3.13;1.80;;;17.30;99.90;;;;;;10377636;28;20054;-62
2021/07/28 22:05:12;;;;;;;8.80;2.60;;;17.30;99.90;;;;;;10378330;28;20149;-62
2021/07/28 22:10:14;;;;;;;8.25;2.38;;;17.30;99.90;;;;;;10376986;28;20096;-62
2021/07/28 22:15:16;;;;;;;3.97;2.05;;;17.20;99.90;;;;;;10374015;28;20062;-62
2021/07/28 22:20:17;;;;;;;5.35;1.90;;;17.20;99.90;;;;;;10376255;28;20046;-62
2021/07/28 22:25:19;;;;;;;5.40;1.95;;;17.20;99.90;;;;;;10380033;28;20080;-62
2021/07/28 22:30:21;;;;;;;2.50;1.60;;;17.20;99.90;;;;;;10377996;28;20401;-62
2021/07/28 22:35:22;;;;;;;2.40;1.48;;;17.20;99.90;;;;;;10378089;28;20089;-62
2021/07/28 22:40:24;;;;;;;4.78;1.60;;;17.30;99.90;;;;;;10375325;28;20054;-62
2021/07/28 22:45:26;;;;;;;2.00;1.20;;;17.40;99.90;;;;;;10376428;28;20102;-62
2021/07/28 22:55:47;;;;;;;2.38;1.00;;;17.30;99.90;;;;;;10323469;28;20054;-62
2021/07/28 23:06:39;;;;;;;3.50;1.02;;;17.30;99.90;;;;;;10382436;28;20057;-62
2021/07/28 23:11:31;;;;;;;2.75;0.90;;;17.20;99.90;;;;;;10377829;28;20072;-63
2021/07/28 23:16:33;;;;;;;5.38;1.05;;;17.00;99.90;;;;;;10376973;28;20112;-62
2021/07/28 23:21:35;;;;;;;4.72;1.83;;;17.00;99.90;;;;;;10380111;28;20055;-62
2021/07/28 23:26:37;;;;;;;2.03;0.90;;;16.90;99.90;;;;;;10377970;28;20049;-62
2021/07/28 23:31:38;;;;;;;2.53;1.20;;;16.80;99.90;;;;;;10375472;28;20065;-62
2021/07/28 23:36:40;;;;;;;4.57;1.15;;;16.80;99.90;;;;;;10380004;28;20056;-62
2021/07/28 23:41:42;;;;;;;1.80;1.10;;;16.70;99.90;;;;;;10381810;28;20200;-62
2021/07/28 23:46:44;;;;;;;2.00;1.10;;;16.60;99.90;;;;;;10373405;28;20450;-62
2021/07/28 23:51:45;;;;;;;1.50;1.10;;;16.70;99.90;;;;;;10378140;28;20053;-62
2021/07/28 23:56:47;;;;;;;2.88;1.25;;;16.70;99.90;;;;;;10375816;28;20081;-62
